Time;durP1;ratioP1;P1;durP2;ratioP2;P2;SDS_P1;SDS_P2;PMS_P1;PMS_P2;Temp;Humidity;BMP_temperature;BMP_pressure;BME280_temperature;BME280_humidity;BME280_pressure;Samples;Min_cycle;Max_cycle;Signal;HPM_P1;HPM_P2
2022/03/10 00:01:37;;;;;;;39.38;22.08;;;;;;;4.12;63.18;102228.13;5115251;28;20419;-60
2022/03/10 00:04:02;;;;;;;39.85;22.73;;;;;;;4.00;63.41;102213.03;5115282;28;20031;-60
2022/03/10 00:06:27;;;;;;;42.33;22.42;;;;;;;4.06;63.21;102228.78;5115411;28;20032;-60
2022/03/10 00:08:52;;;;;;;37.35;22.27;;;;;;;4.04;63.29;102237.31;5115471;28;20449;-60
2022/03/10 00:11:18;;;;;;;36.83;21.67;;;;;;;3.99;63.20;102225.91;5115092;28;20081;-60
2022/03/10 00:13:43;;;;;;;38.05;22.63;;;;;;;3.98;63.97;102242.31;5115394;28;20070;-60
2022/03/10 00:16:09;;;;;;;38.78;22.55;;;;;;;3.95;64.32;102239.59;5115503;28;20044;-59
2022/03/10 00:18:34;;;;;;;41.22;22.42;;;;;;;3.87;63.32;102236.72;5115352;28;20035;-59
2022/03/10 00:20:59;;;;;;;43.88;22.27;;;;;;;3.90;63.22;102241.13;5115332;28;20130;-60
2022/03/10 00:23:24;;;;;;;39.33;21.88;;;;;;;3.84;64.70;102239.19;5115040;28;20074;-60
2022/03/10 00:25:50;;;;;;;37.78;22.50;;;;;;;3.75;64.88;102232.00;5115123;28;20023;-59
2022/03/10 00:28:18;;;;;;;39.38;22.63;;;;;;;3.76;64.94;102227.69;5115336;28;20483;-60
2022/03/10 00:30:43;;;;;;;39.42;22.75;;;;;;;3.69;65.22;102234.34;5114975;28;20107;-60
2022/03/10 00:33:08;;;;;;;39.83;22.27;;;;;;;3.69;65.04;102238.63;5114655;28;20116;-59
2022/03/10 00:35:34;;;;;;;39.58;22.17;;;;;;;3.62;65.51;102227.19;5114988;28;20027;-60
2022/03/10 00:37:59;;;;;;;39.40;22.63;;;;;;;3.52;65.39;102225.06;5115401;28;20439;-60
2022/03/10 00:40:25;;;;;;;40.28;22.13;;;;;;;3.56;65.43;102229.56;5114998;28;20504;-60
2022/03/10 00:42:51;;;;;;;38.28;22.02;;;;;;;3.49;66.05;102245.66;5114973;28;20043;-60
2022/03/10 00:45:16;;;;;;;44.30;22.63;;;;;;;3.49;66.49;102241.38;5114915;28;20335;-60
2022/03/10 00:47:42;;;;;;;40.50;21.15;;;;;;;3.45;65.74;102243.81;5114736;28;20023;-59
2022/03/10 00:50:09;;;;;;;41.25;22.42;;;;;;;3.40;65.93;102242.75;5114537;28;20043;-59
2022/03/10 00:52:42;;;;;;;38.67;21.83;;;;;;;3.37;66.20;102247.78;5115201;28;20028;-60
2022/03/10 00:55:10;;;;;;;40.55;21.70;;;;;;;3.30;66.36;102243.19;5114846;28;20040;-59
2022/03/10 00:57:36;;;;;;;37.28;21.77;;;;;;;3.25;67.10;102243.03;5114769;28;20036;-60
2022/03/10 01:00:03;;;;;;;39.55;22.85;;;;;;;3.27;67.50;102243.97;5116311;28;20046;-59
2022/03/10 01:02:31;;;;;;;39.72;23.02;;;;;;;3.21;66.29;102246.31;5118332;28;20035;-59
2022/03/10 01:04:56;;;;;;;42.28;23.42;;;;;;;3.17;67.61;102251.31;5118371;28;20496;-60
2022/03/10 01:07:21;;;;;;;43.05;23.45;;;;;;;3.20;67.51;102243.66;5118560;28;20113;-59
2022/03/10 01:09:47;;;;;;;39.53;23.10;;;;;;;3.14;67.09;102233.97;5118622;28;20172;-59
2022/03/10 01:12:12;;;;;;;45.30;23.08;;;;;;;3.19;66.14;102226.38;5118567;28;20458;-60
2022/03/10 01:14:37;;;;;;;40.55;22.98;;;;;;;3.37;66.61;102245.19;5118289;28;20055;-60
2022/03/10 01:17:03;;;;;;;42.88;23.75;;;;;;;3.48;65.98;102247.38;5118358;28;20461;-60
2022/03/10 01:19:29;;;;;;;41.80;23.63;;;;;;;3.53;66.42;102247.53;5118412;28;20118;-59
2022/03/10 01:21:54;;;;;;;44.58;23.45;;;;;;;3.50;66.61;102243.13;5118290;28;20111;-60
2022/03/10 01:24:20;;;;;;;39.47;23.70;;;;;;;3.47;66.96;102247.31;5118195;28;20498;-59
2022/03/10 01:26:45;;;;;;;40.35;22.73;;;;;;;3.48;67.17;102238.72;5117954;28;20034;-59
2022/03/10 01:29:13;;;;;;;44.30;23.63;;;;;;;3.35;67.15;102232.19;5118700;28;20032;-59
2022/03/10 01:31:38;;;;;;;41.97;23.30;;;;;;;3.40;66.45;102241.03;5117817;28;20077;-59
2022/03/10 01:34:03;;;;;;;41.22;23.40;;;;;;;3.42;66.62;102231.63;5117858;28;20028;-59
2022/03/10 01:36:29;;;;;;;45.03;24.10;;;;;;;3.53;66.42;102237.19;5114631;28;20040;-60
2022/03/10 01:38:54;;;;;;;42.35;22.75;;;;;;;3.45;67.02;102246.41;5114765;28;20050;-59
2022/03/10 01:41:19;;;;;;;44.70;23.98;;;;;;;3.45;66.57;102231.75;5117833;28;20110;-59
2022/03/10 01:43:59;;;;;;;43.78;23.40;;;;;;;3.46;66.67;102243.84;5117743;28;20036;-59
2022/03/10 01:46:26;;;;;;;43.00;24.17;;;;;;;3.41;67.94;102244.50;5117910;28;20426;-59
2022/03/10 01:48:51;;;;;;;43.40;24.92;;;;;;;3.31;66.99;102229.44;5117750;28;20077;-59
2022/03/10 01:51:17;;;;;;;43.92;24.67;;;;;;;3.28;68.14;102242.28;5118162;28;20028;-59
2022/03/10 01:53:42;;;;;;;41.47;24.08;;;;;;;3.24;68.54;102233.50;5117904;28;20430;-59
2022/03/10 01:56:10;;;;;;;40.10;23.35;;;;;;;3.29;67.82;102231.09;5117475;28;20031;-59
2022/03/10 01:58:36;;;;;;;41.35;24.05;;;;;;;3.26;68.06;102233.56;5117383;28;20038;-59
2022/03/10 02:01:02;;;;;;;45.10;24.73;;;;;;;3.27;67.88;102238.81;5117351;28;20092;-59
2022/03/10 02:03:27;;;;;;;44.53;23.83;;;;;;;3.12;68.82;102226.13;5117308;28;20024;-60
2022/03/10 02:05:53;;;;;;;43.67;23.45;;;;;;;3.21;68.29;102232.50;5117429;28;20103;-59
2022/03/10 02:11:04;;;;;;;41.33;23.92;;;;;;;3.23;68.79;102236.03;5116105;28;20127;-59
2022/03/10 02:13:30;;;;;;;41.75;22.80;;;;;;;3.21;68.17;102229.91;5117535;28;20039;-60
2022/03/10 02:18:39;;;;;;;45.70;24.10;;;;;;;3.07;69.56;102222.50;5117033;28;20042;-60
2022/03/10 02:21:05;;;;;;;44.28;23.60;;;;;;;3.05;69.43;102220.69;5116903;28;20024;-61
2022/03/10 02:23:31;;;;;;;41.63;23.33;;;;;;;3.09;69.04;102225.16;5117190;28;20107;-59
2022/03/10 02:26:00;;;;;;;41.53;24.10;;;;;;;2.94;69.93;102221.97;5117274;28;20323;-59
2022/03/10 02:28:26;;;;;;;43.17;24.48;;;;;;;3.01;69.84;102230.00;5116712;28;20051;-60
2022/03/10 02:30:52;;;;;;;40.83;23.00;;;;;;;2.90;69.42;102222.66;5116951;28;20449;-59
2022/03/10 02:33:17;;;;;;;45.90;23.67;;;;;;;2.86;70.01;102226.81;5116772;28;20059;-59
2022/03/10 02:35:43;;;;;;;42.28;23.95;;;;;;;2.79;69.71;102227.38;5116628;28;20028;-60
2022/03/10 02:38:08;;;;;;;45.33;24.38;;;;;;;2.74;70.66;102231.50;5116506;28;20081;-59
2022/03/10 02:40:33;;;;;;;40.55;23.02;;;;;;;2.60;70.41;102212.84;5116656;28;20110;-59
2022/03/10 02:42:59;;;;;;;40.28;23.13;;;;;;;2.72;70.71;102234.03;5116598;28;20027;-59
2022/03/10 02:45:25;;;;;;;44.38;23.63;;;;;;;2.66;70.14;102210.50;5116570;28;20097;-59
2022/03/10 02:47:51;;;;;;;45.38;23.52;;;;;;;2.77;69.79;102229.06;5116462;28;20047;-60
2022/03/10 02:50:17;;;;;;;45.70;23.80;;;;;;;2.64;70.79;102231.94;5115825;28;20115;-60
2022/03/10 02:52:42;;;;;;;41.90;23.80;;;;;;;2.58;71.30;102222.25;5116385;28;20039;-59
2022/03/10 02:55:08;;;;;;;42.78;23.75;;;;;;;2.59;71.13;102234.34;5116400;28;20027;-59
2022/03/10 02:57:35;;;;;;;48.03;25.13;;;;;;;2.56;71.24;102228.19;5116142;28;20350;-59
2022/03/10 03:00:00;;;;;;;44.53;23.70;;;;;;;2.57;71.83;102227.34;5116111;28;20414;-60
2022/03/10 03:02:27;;;;;;;41.92;23.27;;;;;;;2.62;70.95;102224.13;5116252;28;20039;-59
2022/03/10 03:04:52;;;;;;;41.75;23.85;;;;;;;2.70;70.64;102225.34;5116329;28;20028;-61
2022/03/10 03:07:17;;;;;;;41.88;23.80;;;;;;;2.75;71.06;102225.53;5115684;28;20354;-59
2022/03/10 03:09:43;;;;;;;50.58;23.83;;;;;;;2.76;70.41;102224.72;5116114;28;20027;-59
2022/03/10 03:12:08;;;;;;;47.13;24.33;;;;;;;2.83;70.08;102230.97;5116133;28;20081;-60
2022/03/10 03:14:33;;;;;;;43.50;23.60;;;;;;;2.87;69.96;102223.41;5116439;28;20043;-60
2022/03/10 03:16:59;;;;;;;44.70;23.48;;;;;;;2.91;69.95;102234.78;5116209;28;20114;-59
2022/03/10 03:19:25;;;;;;;41.05;24.20;;;;;;;2.90;69.80;102226.13;5115994;28;20368;-59
2022/03/10 03:21:53;;;;;;;44.33;24.13;;;;;;;2.92;70.48;102232.25;5115720;28;20031;-59
2022/03/10 03:24:20;;;;;;;41.45;22.77;;;;;;;2.90;70.70;102231.31;5115141;28;20027;-59
2022/03/10 03:26:46;;;;;;;43.10;23.17;;;;;;;2.89;70.20;102236.41;5115872;28;20118;-60
2022/03/10 03:29:11;;;;;;;42.13;23.85;;;;;;;2.83;70.59;102234.44;5115747;28;20071;-60
2022/03/10 03:31:37;;;;;;;43.28;23.73;;;;;;;2.82;70.38;102242.16;5115844;28;20043;-60
2022/03/10 03:34:09;;;;;;;43.63;23.40;;;;;;;2.72;71.21;102239.19;5115457;28;20464;-60
2022/03/10 03:36:36;;;;;;;45.53;23.73;;;;;;;2.64;71.58;102240.56;5115533;28;20385;-60
2022/03/10 03:39:01;;;;;;;40.88;23.67;;;;;;;2.57;71.46;102242.88;5115415;28;20041;-59
2022/03/10 03:41:26;;;;;;;44.45;24.02;;;;;;;2.53;71.85;102243.53;5115592;28;20114;-59
2022/03/10 03:43:51;;;;;;;42.22;23.98;;;;;;;2.53;71.79;102239.25;5115768;28;20405;-59
2022/03/10 03:46:17;;;;;;;48.17;23.98;;;;;;;2.54;71.62;102230.69;5097615;28;20032;-59
2022/03/10 03:48:42;;;;;;;43.85;24.73;;;;;;;2.55;72.18;102235.03;5116299;28;20028;-60
2022/03/10 03:51:07;;;;;;;44.13;23.17;;;;;;;2.52;72.04;102237.50;5115426;28;20548;-59
2022/03/10 03:53:33;;;;;;;41.90;23.63;;;;;;;2.48;72.51;102245.94;5115409;28;20043;-59
2022/03/10 03:55:58;;;;;;;45.20;23.80;;;;;;;2.30;71.74;102225.38;5115643;28;20028;-59
2022/03/10 03:58:23;;;;;;;46.67;24.45;;;;;;;2.42;72.73;102249.13;5115443;28;20346;-59
2022/03/10 04:00:48;;;;;;;43.67;23.88;;;;;;;2.34;72.19;102234.13;5115542;28;20047;-59
2022/03/10 04:03:14;;;;;;;40.17;23.05;;;;;;;2.43;72.86;102265.50;5115634;28;20047;-59
2022/03/10 04:05:39;;;;;;;42.28;23.80;;;;;;;2.26;73.29;102240.66;5115315;28;20067;-59
2022/03/10 04:08:07;;;;;;;40.17;22.80;;;;;;;2.32;73.33;102251.28;5115832;28;20134;-59
2022/03/10 04:10:32;;;;;;;43.10;23.38;;;;;;;2.23;72.62;102263.81;5114862;28;20335;-59
2022/03/10 04:12:58;;;;;;;48.75;23.98;;;;;;;2.17;72.89;102264.41;5115384;28;20061;-60
2022/03/10 04:15:23;;;;;;;41.47;23.35;;;;;;;2.13;73.63;102264.19;5115212;28;20349;-60
2022/03/10 04:17:49;;;;;;;41.67;24.20;;;;;;;2.06;73.99;102266.53;5115198;28;20039;-59
2022/03/10 04:20:14;;;;;;;43.85;24.33;;;;;;;2.00;73.90;102270.53;5115119;28;20027;-59
2022/03/10 04:22:40;;;;;;;38.55;22.48;;;;;;;2.04;73.90;102269.88;5115144;28;20024;-59
2022/03/10 04:25:07;;;;;;;51.25;24.27;;;;;;;2.01;74.06;102273.19;5115049;28;20035;-59
2022/03/10 04:27:32;;;;;;;42.95;23.30;;;;;;;2.02;73.81;102266.31;5114863;28;20052;-59
2022/03/10 04:29:57;;;;;;;43.25;22.85;;;;;;;1.96;74.15;102260.88;5114947;28;20036;-59
2022/03/10 04:32:23;;;;;;;41.83;23.15;;;;;;;1.90;74.70;102255.47;5115103;28;20023;-59
2022/03/10 04:34:48;;;;;;;42.72;23.83;;;;;;;1.94;74.55;102268.56;5116066;28;20160;-60
2022/03/10 04:37:13;;;;;;;43.42;23.38;;;;;;;1.91;74.74;102264.94;5119241;28;20031;-59
2022/03/10 04:39:39;;;;;;;42.20;22.83;;;;;;;1.83;74.85;102262.03;5119399;28;20027;-59
2022/03/10 04:42:04;;;;;;;43.13;23.40;;;;;;;1.75;75.13;102268.53;5119124;28;20059;-59
2022/03/10 04:44:29;;;;;;;43.33;23.58;;;;;;;1.73;75.14;102265.91;5118594;28;20027;-59
2022/03/10 04:46:55;;;;;;;44.28;22.85;;;;;;;1.79;74.88;102269.56;5118948;28;20039;-59
2022/03/10 04:49:20;;;;;;;46.05;23.27;;;;;;;1.75;75.28;102269.44;5118073;28;20031;-59
2022/03/10 04:51:45;;;;;;;42.20;23.50;;;;;;;1.86;74.90;102263.88;5119140;28;20024;-59
2022/03/10 04:54:11;;;;;;;45.50;23.33;;;;;;;1.94;74.59;102258.22;5118717;28;20028;-61
2022/03/10 04:56:36;;;;;;;41.83;22.40;;;;;;;1.98;73.93;102257.56;5118514;28;20034;-59
2022/03/10 04:59:01;;;;;;;41.00;23.23;;;;;;;1.99;73.52;102250.69;5118826;28;20035;-59
2022/03/10 05:01:27;;;;;;;42.38;22.65;;;;;;;2.01;73.80;102267.16;5118924;28;20044;-59
2022/03/10 05:03:52;;;;;;;43.85;22.85;;;;;;;1.93;74.38;102256.47;5118829;28;20128;-60
2022/03/10 05:06:17;;;;;;;43.97;23.80;;;;;;;1.83;74.22;102256.00;5118560;28;20071;-60
2022/03/10 05:08:43;;;;;;;42.40;22.25;;;;;;;1.73;74.30;102260.72;5118697;28;20038;-59
2022/03/10 05:11:08;;;;;;;44.88;23.15;;;;;;;1.69;74.74;102269.19;5117960;28;20473;-59
2022/03/10 05:13:33;;;;;;;43.88;22.95;;;;;;;1.58;74.75;102269.47;5118619;28;20024;-59
2022/03/10 05:15:59;;;;;;;39.03;22.98;;;;;;;1.43;75.25;102238.72;5118490;28;20032;-59
2022/03/10 05:18:24;;;;;;;43.30;22.92;;;;;;;1.52;74.67;102277.84;5118465;28;20050;-60
2022/03/10 05:20:49;;;;;;;40.85;21.67;;;;;;;1.49;75.87;102277.69;5118217;28;20028;-59
2022/03/10 05:23:14;;;;;;;41.08;23.13;;;;;;;1.49;75.93;102285.44;5118051;28;20112;-60
2022/03/10 05:25:41;;;;;;;40.13;22.40;;;;;;;1.45;76.32;102291.25;5118203;28;20397;-59
2022/03/10 05:28:14;;;;;;;41.63;22.10;;;;;;;1.44;76.42;102286.03;5117989;28;20064;-59
2022/03/10 05:30:41;;;;;;;40.17;22.45;;;;;;;1.47;76.27;102281.00;5118227;28;20032;-59
2022/03/10 05:33:07;;;;;;;41.13;22.80;;;;;;;1.48;76.16;102275.91;5117663;28;20027;-59
2022/03/10 05:35:33;;;;;;;41.90;22.88;;;;;;;1.44;75.99;102286.03;5117723;28;20114;-60
2022/03/10 05:37:59;;;;;;;42.55;23.08;;;;;;;1.40;75.80;102278.13;5117760;28;20081;-60
2022/03/10 05:40:24;;;;;;;43.30;22.33;;;;;;;1.34;76.25;102280.44;5117945;28;20055;-59
2022/03/10 05:42:52;;;;;;;43.53;23.30;;;;;;;1.31;76.34;102279.41;5117905;28;20030;-59
2022/03/10 05:45:20;;;;;;;46.45;23.42;;;;;;;1.29;76.14;102286.19;5118304;28;20043;-60
2022/03/10 05:47:47;;;;;;;40.88;23.02;;;;;;;1.30;76.59;102275.06;5113322;28;20032;-60
2022/03/10 05:50:12;;;;;;;44.88;22.85;;;;;;;1.30;75.91;102278.53;5108891;28;20503;-59
2022/03/10 05:52:38;;;;;;;42.60;21.70;;;;;;;1.40;75.21;102285.88;5096781;28;20068;-60
2022/03/10 05:55:05;;;;;;;44.67;23.27;;;;;;;1.50;75.66;102270.84;5096897;28;20028;-60
2022/03/10 05:57:30;;;;;;;42.85;22.17;;;;;;;1.49;74.87;102272.53;5097036;28;20032;-60
2022/03/10 05:59:56;;;;;;;45.15;23.33;;;;;;;1.47;75.63;102279.31;5097131;28;20016;-60
2022/03/10 06:02:21;;;;;;;40.08;21.73;;;;;;;1.42;75.83;102278.22;5096825;28;20378;-61
2022/03/10 06:04:46;;;;;;;41.42;21.83;;;;;;;1.45;76.00;102268.03;5096468;28;20067;-59
2022/03/10 06:07:11;;;;;;;43.47;23.13;;;;;;;1.48;75.37;102273.34;5097072;28;20089;-59
2022/03/10 06:09:37;;;;;;;41.80;22.30;;;;;;;1.52;75.66;102271.81;5096660;28;20394;-59
2022/03/10 06:12:03;;;;;;;42.78;22.58;;;;;;;1.51;75.17;102270.91;5096791;28;20024;-60
2022/03/10 06:14:28;;;;;;;41.63;22.40;;;;;;;1.48;75.33;102278.50;5096799;28;20055;-60
2022/03/10 06:16:53;;;;;;;43.60;23.02;;;;;;;1.52;75.39;102270.09;5096681;28;20387;-59
2022/03/10 06:19:19;;;;;;;41.47;21.38;;;;;;;1.54;74.99;102276.22;5096718;28;20038;-59
2022/03/10 06:21:45;;;;;;;41.03;21.42;;;;;;;1.60;75.68;102280.75;5096553;28;20474;-60
2022/03/10 06:24:10;;;;;;;44.05;22.27;;;;;;;1.55;75.53;102270.25;5096515;28;20028;-60
2022/03/10 06:26:36;;;;;;;41.17;21.70;;;;;;;1.64;73.92;102280.09;5096720;28;20032;-59
2022/03/10 06:29:03;;;;;;;45.90;21.65;;;;;;;1.78;73.24;102288.44;5096424;28;20051;-59
2022/03/10 06:31:28;;;;;;;42.53;21.70;;;;;;;1.85;72.77;102285.34;5087581;28;20349;-60
2022/03/10 06:33:54;;;;;;;41.22;21.90;;;;;;;1.94;72.99;102286.63;5088511;28;20036;-59
2022/03/10 06:36:19;;;;;;;41.00;22.55;;;;;;;1.97;72.82;102279.03;5076069;28;20090;-59
2022/03/10 06:38:44;;;;;;;44.72;22.48;;;;;;;2.02;73.48;102279.25;5076010;28;20055;-59
2022/03/10 06:41:10;;;;;;;41.50;21.60;;;;;;;2.10;72.72;102277.84;5076170;28;20044;-59
2022/03/10 06:43:35;;;;;;;43.42;22.83;;;;;;;2.18;71.67;102280.78;5076138;28;20035;-64
2022/03/10 06:46:00;;;;;;;42.67;21.83;;;;;;;2.32;71.85;102277.09;5075906;28;20444;-60
2022/03/10 06:48:25;;;;;;;41.80;20.98;;;;;;;2.52;71.76;102271.09;5075764;28;20051;-60
2022/03/10 06:50:51;;;;;;;45.35;22.40;;;;;;;2.88;70.06;102278.59;5075531;28;20401;-60
2022/03/10 06:53:17;;;;;;;41.22;22.15;;;;;;;3.09;70.47;102279.47;5075936;28;20061;-59
2022/03/10 06:55:42;;;;;;;44.95;22.85;;;;;;;3.26;69.93;102291.38;5075867;28;20395;-60
2022/03/10 06:58:08;;;;;;;41.30;21.45;;;;;;;3.57;68.15;102287.38;5076208;28;20347;-60
2022/03/10 07:00:33;;;;;;;41.90;22.60;;;;;;;3.82;66.46;102287.44;5075677;28;20050;-60
2022/03/10 07:02:58;;;;;;;45.17;23.65;;;;;;;4.04;65.11;102295.19;5089255;28;20032;-60
2022/03/10 07:05:24;;;;;;;44.38;21.98;;;;;;;4.17;64.77;102283.56;5095700;28;20024;-60
2022/03/10 07:07:49;;;;;;;42.58;21.83;;;;;;;4.41;64.37;102288.72;5096109;28;20113;-60
2022/03/10 07:10:15;;;;;;;38.95;21.90;;;;;;;4.63;63.89;102286.06;5095740;28;20028;-60
2022/03/10 07:12:41;;;;;;;40.30;22.00;;;;;;;4.75;62.72;102285.56;5095624;28;20439;-59
2022/03/10 07:15:11;;;;;;;40.67;22.08;;;;;;;4.89;62.32;102286.91;5095600;28;20047;-59
2022/03/10 07:17:41;;;;;;;41.10;22.05;;;;;;;5.00;60.86;102290.75;5095559;28;20032;-59
2022/03/10 07:20:07;;;;;;;39.85;22.40;;;;;;;5.18;61.31;102296.53;5095264;28;20032;-60
2022/03/10 07:22:33;;;;;;;46.38;22.83;;;;;;;5.33;60.12;102297.84;5095721;28;20051;-59
2022/03/10 07:24:58;;;;;;;45.00;23.70;;;;;;;5.49;59.98;102292.28;5095332;28;20036;-59
2022/03/10 07:27:23;;;;;;;40.08;21.73;;;;;;;5.68;58.72;102284.22;5094864;28;20056;-59
2022/03/10 07:29:49;;;;;;;38.70;22.73;;;;;;;5.81;58.49;102290.66;5095249;28;20062;-60
2022/03/10 07:32:14;;;;;;;40.38;22.58;;;;;;;6.03;57.73;102286.97;5095347;28;20028;-59
2022/03/10 07:34:39;;;;;;;40.25;21.92;;;;;;;6.14;56.57;102293.34;5094970;28;20387;-60
2022/03/10 07:37:05;;;;;;;40.22;22.52;;;;;;;6.28;56.56;102286.81;5095106;28;20450;-60
2022/03/10 07:39:30;;;;;;;39.47;21.90;;;;;;;6.37;55.63;102283.59;5095151;28;20447;-59
2022/03/10 07:41:55;;;;;;;39.42;21.73;;;;;;;6.58;55.41;102290.22;5095116;28;20363;-59
2022/03/10 07:44:21;;;;;;;41.45;22.55;;;;;;;6.65;54.43;102296.47;5095406;28;20039;-59
2022/03/10 07:46:46;;;;;;;42.00;22.95;;;;;;;6.88;54.25;102294.47;5094966;28;20036;-60
2022/03/10 07:49:12;;;;;;;42.25;22.00;;;;;;;6.94;53.61;102284.19;5094873;28;20040;-59
2022/03/10 07:51:40;;;;;;;38.35;21.73;;;;;;;7.14;54.23;102288.16;5094938;28;20028;-59
2022/03/10 07:54:05;;;;;;;42.67;22.10;;;;;;;7.38;52.43;102276.56;5095165;28;20280;-59
2022/03/10 07:56:31;;;;;;;39.67;22.05;;;;;;;7.61;51.50;102275.34;5095133;28;20031;-59
2022/03/10 07:58:56;;;;;;;40.33;21.85;;;;;;;7.95;50.88;102269.13;5094984;28;20444;-59
2022/03/10 08:01:21;;;;;;;40.33;21.98;;;;;;;8.38;49.76;102282.16;5094859;28;20453;-59
2022/03/10 08:03:47;;;;;;;40.28;22.83;;;;;;;8.68;48.62;102270.50;5094776;28;20188;-59
2022/03/10 08:06:13;;;;;;;38.55;21.77;;;;;;;8.97;47.86;102268.38;5094860;28;20450;-59
2022/03/10 08:08:38;;;;;;;39.28;21.90;;;;;;;9.25;47.82;102267.94;5095297;28;20162;-59
2022/03/10 08:11:06;;;;;;;40.88;22.08;;;;;;;9.41;46.87;102269.91;5098183;28;20070;-60
2022/03/10 08:13:32;;;;;;;39.88;21.67;;;;;;;9.71;45.83;102256.38;5098988;28;20032;-59
2022/03/10 08:15:59;;;;;;;40.08;22.38;;;;;;;10.36;44.11;102273.75;5095345;28;20107;-60
2022/03/10 08:18:24;;;;;;;41.25;22.17;;;;;;;10.38;43.49;102269.41;5098769;28;20032;-61
2022/03/10 08:20:49;;;;;;;41.22;21.70;;;;;;;10.62;43.10;102272.25;5098604;28;20138;-60
2022/03/10 08:23:17;;;;;;;37.80;22.17;;;;;;;11.23;42.31;102267.50;5098784;28;20038;-59
2022/03/10 08:25:42;;;;;;;36.13;21.85;;;;;;;11.59;41.48;102269.47;5098805;28;20104;-59
2022/03/10 08:28:08;;;;;;;39.90;22.02;;;;;;;12.04;40.11;102257.44;5098910;28;20134;-60
2022/03/10 08:30:33;;;;;;;40.78;22.02;;;;;;;12.38;39.73;102269.78;5098319;28;20028;-59
2022/03/10 08:32:59;;;;;;;40.17;22.17;;;;;;;12.32;39.18;102261.88;5098481;28;20124;-60
2022/03/10 08:35:24;;;;;;;38.25;21.92;;;;;;;11.96;39.80;102267.91;5098692;28;20107;-60
2022/03/10 08:37:50;;;;;;;38.00;21.13;;;;;;;12.04;40.14;102260.94;5098545;28;20442;-60
2022/03/10 08:40:18;;;;;;;36.35;21.40;;;;;;;12.02;39.65;102259.19;5098730;28;20024;-59
2022/03/10 08:42:44;;;;;;;40.83;22.15;;;;;;;11.81;39.78;102255.59;5098681;28;20032;-58
2022/03/10 08:45:10;;;;;;;37.67;22.02;;;;;;;11.48;40.23;102258.91;5098313;28;20039;-60
2022/03/10 08:47:35;;;;;;;37.63;21.60;;;;;;;11.22;41.24;102263.13;5098320;28;20032;-60
2022/03/10 08:50:01;;;;;;;41.50;21.83;;;;;;;11.01;41.58;102260.34;5098467;28;20062;-60
2022/03/10 08:52:26;;;;;;;38.85;21.58;;;;;;;10.89;41.73;102266.38;5098315;28;20032;-60
2022/03/10 08:54:51;;;;;;;36.80;22.23;;;;;;;10.75;42.00;102266.25;5098260;28;20046;-60
2022/03/10 08:57:17;;;;;;;38.47;21.48;;;;;;;10.68;42.58;102264.47;5080402;28;20363;-60
2022/03/10 08:59:42;;;;;;;39.17;22.05;;;;;;;10.62;43.13;102264.41;5098317;28;20546;-61
2022/03/10 09:02:07;;;;;;;38.72;22.15;;;;;;;10.59;42.20;102261.75;5097554;28;20032;-61
2022/03/10 09:04:33;;;;;;;37.28;21.38;;;;;;;10.71;42.87;102266.22;5098333;28;20028;-60
2022/03/10 09:06:58;;;;;;;38.83;22.35;;;;;;;10.88;43.14;102264.63;5097916;28;20044;-60
2022/03/10 09:09:24;;;;;;;34.30;21.23;;;;;;;10.83;42.69;102232.28;5098244;28;20353;-60
2022/03/10 09:11:49;;;;;;;40.03;21.85;;;;;;;11.05;41.94;102257.78;5097976;28;20111;-60
2022/03/10 09:14:14;;;;;;;38.92;21.85;;;;;;;11.10;41.45;102260.41;5097835;28;20081;-59
2022/03/10 09:16:40;;;;;;;38.65;21.42;;;;;;;11.18;42.28;102237.78;5094481;28;20040;-59
2022/03/10 09:19:05;;;;;;;35.33;21.25;;;;;;;11.38;42.42;102238.78;5097805;28;20027;-58
2022/03/10 09:21:30;;;;;;;38.63;21.08;;;;;;;11.51;41.94;102229.22;5097904;28;20046;-63
2022/03/10 09:23:56;;;;;;;38.00;21.63;;;;;;;11.61;41.31;102241.50;5097956;28;20028;-58
2022/03/10 09:26:21;;;;;;;39.17;21.38;;;;;;;11.76;41.94;102236.38;5097728;28;20382;-58
2022/03/10 09:28:46;;;;;;;37.42;21.50;;;;;;;11.82;40.92;102220.66;5097258;28;20044;-57
2022/03/10 09:31:12;;;;;;;39.38;22.27;;;;;;;11.92;40.76;102232.06;5097520;28;20081;-57
2022/03/10 09:33:41;;;;;;;37.38;22.15;;;;;;;11.97;40.99;102222.44;5097500;28;20038;-58
2022/03/10 09:36:07;;;;;;;35.60;20.75;;;;;;;12.02;40.92;102222.47;5097422;28;20032;-56
2022/03/10 09:38:32;;;;;;;35.45;20.95;;;;;;;12.11;40.92;102217.25;5097207;28;20039;-60
2022/03/10 09:40:57;;;;;;;34.88;21.17;;;;;;;12.11;40.22;102214.63;5093670;28;20044;-60
2022/03/10 09:43:27;;;;;;;37.30;21.00;;;;;;;12.16;40.77;102221.63;5097282;28;20032;-60
2022/03/10 09:45:53;;;;;;;36.25;21.20;;;;;;;12.20;40.41;102217.25;5096679;28;20352;-60
2022/03/10 09:48:18;;;;;;;35.72;21.40;;;;;;;12.49;40.51;102210.28;5096712;28;20043;-60
2022/03/10 09:50:46;;;;;;;38.13;21.33;;;;;;;12.59;40.34;102215.56;5078952;28;20043;-60
2022/03/10 09:53:12;;;;;;;35.25;20.50;;;;;;;12.74;40.02;102207.66;5095660;28;20031;-60
2022/03/10 09:55:37;;;;;;;34.85;20.98;;;;;;;12.82;40.13;102206.78;5081948;28;20115;-59
2022/03/10 09:58:03;;;;;;;40.97;22.02;;;;;;;12.79;39.80;102206.81;5076557;28;20051;-59
2022/03/10 10:00:29;;;;;;;37.13;20.02;;;;;;;12.70;40.06;102200.66;5076558;28;20497;-60
2022/03/10 10:02:55;;;;;;;36.65;21.83;;;;;;;12.93;40.26;102195.38;5076410;28;20056;-60
2022/03/10 10:05:25;;;;;;;36.85;21.23;;;;;;;13.31;40.71;102188.34;5076604;28;20029;-60
2022/03/10 10:08:02;;;;;;;37.47;20.25;;;;;;;13.40;39.86;102196.19;5076497;28;20467;-60
2022/03/10 10:10:28;;;;;;;37.42;21.75;;;;;;;13.48;39.49;102197.03;5076429;28;20031;-59
2022/03/10 10:12:54;;;;;;;37.00;22.20;;;;;;;13.43;39.23;102195.28;5076025;28;20036;-59
2022/03/10 10:15:20;;;;;;;37.55;21.70;;;;;;;13.42;39.20;102198.81;5076088;28;20040;-60
2022/03/10 10:17:54;;;;;;;37.72;21.75;;;;;;;13.38;39.90;102194.44;5076484;28;20033;-59
2022/03/10 10:20:20;;;;;;;37.33;22.15;;;;;;;13.36;39.48;102183.03;5078774;28;20032;-60
2022/03/10 10:22:47;;;;;;;34.08;20.52;;;;;;;13.43;39.34;102187.41;5075896;28;20120;-59
2022/03/10 10:25:19;;;;;;;36.85;22.52;;;;;;;13.45;39.47;102181.25;5075826;28;20041;-60
2022/03/10 10:27:46;;;;;;;;;;;;;;;13.58;40.54;102184.72;5077095;28;20052;-60
2022/03/10 10:30:12;;;;;;;32.35;19.67;;;;;;;13.58;39.54;102180.31;5078912;28;19917;-60
2022/03/10 10:32:49;;;;;;;36.13;20.80;;;;;;;13.85;40.15;102183.72;5075082;28;20337;-60
2022/03/10 10:35:20;;;;;;;39.42;21.13;;;;;;;13.94;38.68;102191.53;5076459;28;20051;-60
2022/03/10 10:37:49;;;;;;;36.55;21.60;;;;;;;13.88;39.32;102181.91;5075812;28;20035;-60
2022/03/10 10:40:23;;;;;;;38.33;22.15;;;;;;;13.82;39.40;102181.09;5076260;28;20029;-59
2022/03/10 10:42:48;;;;;;;38.47;21.65;;;;;;;13.98;38.93;102176.63;5076324;28;20032;-59
2022/03/10 10:45:30;;;;;;;36.67;22.23;;;;;;;13.94;39.09;102173.13;5076113;28;20029;-60
2022/03/10 10:47:59;;;;;;;37.90;22.17;;;;;;;14.03;39.10;102170.41;5076133;28;20077;-59
2022/03/10 10:50:24;;;;;;;36.53;21.58;;;;;;;13.89;38.75;102157.34;5075645;28;20024;-60
2022/03/10 10:52:49;;;;;;;33.92;19.48;;;;;;;13.96;38.75;102174.00;5076063;28;20032;-60
2022/03/10 10:55:15;;;;;;;28.85;18.23;;;;;;;14.03;39.14;102170.41;5075768;28;20386;-60
2022/03/10 10:57:43;;;;;;;31.77;19.15;;;;;;;14.08;39.28;102170.41;5075843;28;20028;-60
2022/03/10 11:00:13;;;;;;;35.35;18.80;;;;;;;14.20;39.17;102171.19;5075482;28;20514;-60
2022/03/10 11:02:43;;;;;;;32.13;18.02;;;;;;;14.34;38.77;102159.69;5075619;28;20039;-60
2022/03/10 11:05:14;;;;;;;33.63;19.65;;;;;;;14.42;38.58;102166.66;5075817;28;20043;-60
2022/03/10 11:07:41;;;;;;;33.78;19.38;;;;;;;14.49;38.87;102156.97;5075306;28;20434;-59
2022/03/10 11:10:08;;;;;;;30.70;17.80;;;;;;;14.51;38.72;102157.81;5075320;28;20060;-60
2022/03/10 11:12:39;;;;;;;36.13;17.60;;;;;;;14.70;39.00;102148.88;5075293;28;20462;-60
2022/03/10 11:15:07;;;;;;;31.95;18.60;;;;;;;14.84;38.29;102151.38;5075313;28;20035;-60